createdAt,value
2023-05-13T00:00:28.459Z,57.07
2023-05-13T00:02:56.606Z,56.74
2023-05-13T00:05:24.644Z,57.02
2023-05-13T00:07:53.942Z,57.10
2023-05-13T00:10:22.120Z,57.15
2023-05-13T00:12:50.238Z,57.19
2023-05-13T00:15:18.176Z,57.27
2023-05-13T00:17:46.290Z,57.17
2023-05-13T00:20:14.239Z,57.29
2023-05-13T00:22:42.129Z,57.32
2023-05-13T00:25:11.662Z,57.09
2023-05-13T00:27:40.568Z,57.53
2023-05-13T00:30:10.295Z,57.70
2023-05-13T00:32:38.202Z,57.48
2023-05-13T00:35:06.922Z,57.80
2023-05-13T00:37:34.842Z,58.06
2023-05-13T00:40:03.433Z,57.98
2023-05-13T00:42:32.731Z,57.93
2023-05-13T00:45:00.681Z,58.63
2023-05-13T00:47:28.648Z,58.59
2023-05-13T00:49:56.596Z,58.45
2023-05-13T00:52:24.642Z,58.50
2023-05-13T00:54:52.570Z,58.43
2023-05-13T00:57:20.487Z,58.25
2023-05-13T00:59:49.852Z,58.48
2023-05-13T01:02:22.055Z,58.80
2023-05-13T01:04:57.443Z,58.60
2023-05-13T01:07:44.350Z,58.52
2023-05-13T01:10:16.454Z,58.77
2023-05-13T01:12:46.455Z,58.81
2023-05-13T01:15:16.875Z,58.94
2023-05-13T01:17:50.799Z,59.22
2023-05-13T01:20:20.080Z,59.14
2023-05-13T01:22:49.581Z,58.84
2023-05-13T01:25:17.493Z,59.18
2023-05-13T01:27:45.940Z,59.04
2023-05-13T01:30:14.734Z,59.16
2023-05-13T01:32:42.728Z,59.07
2023-05-13T01:35:12.307Z,59.25
2023-05-13T01:37:40.776Z,59.47
2023-05-13T01:40:24.092Z,59.29
2023-05-13T01:42:58.775Z,59.95
2023-05-13T01:45:29.016Z,59.44
2023-05-13T01:47:57.115Z,59.55
2023-05-13T01:50:25.268Z,59.79
2023-05-13T01:52:53.410Z,59.78
2023-05-13T01:55:23.198Z,59.77
2023-05-13T01:57:51.119Z,59.83
2023-05-13T02:00:19.778Z,59.70
2023-05-13T02:02:48.216Z,60.05
2023-05-13T02:05:16.820Z,60.05
2023-05-13T02:07:44.749Z,60.21
2023-05-13T02:10:13.083Z,60.01
2023-05-13T02:12:42.362Z,60.26
2023-05-13T02:15:11.346Z,60.05
2023-05-13T02:17:39.373Z,59.86
2023-05-13T02:20:09.155Z,60.00
2023-05-13T02:22:37.231Z,60.40
2023-05-13T02:25:05.279Z,60.03
2023-05-13T02:27:33.221Z,61.35
2023-05-13T02:30:02.537Z,60.18
2023-05-13T02:32:30.478Z,60.36
2023-05-13T02:34:58.416Z,60.57
2023-05-13T02:37:26.718Z,60.49
2023-05-13T02:39:54.652Z,60.17
2023-05-13T02:42:22.686Z,60.41
2023-05-13T02:44:50.755Z,60.44
2023-05-13T02:47:20.170Z,60.80
2023-05-13T02:49:48.589Z,60.99
2023-05-13T02:52:16.643Z,60.93
2023-05-13T02:54:44.623Z,60.90
2023-05-13T02:57:12.599Z,60.97
2023-05-13T02:59:41.840Z,61.39
2023-05-13T03:02:09.795Z,61.18
2023-05-13T03:04:41.232Z,61.85
2023-05-13T03:07:09.131Z,61.29
2023-05-13T03:09:39.228Z,61.60
2023-05-13T03:12:07.730Z,62.15
2023-05-13T03:14:37.120Z,61.60
2023-05-13T03:17:05.175Z,61.79
2023-05-13T03:19:33.085Z,62.22
2023-05-13T03:22:02.381Z,61.99
2023-05-13T03:24:30.373Z,61.84
2023-05-13T03:26:58.376Z,61.39
2023-05-13T03:29:26.332Z,61.41
2023-05-13T03:31:54.754Z,61.69
2023-05-13T03:34:22.657Z,61.70
2023-05-13T03:36:50.565Z,61.54
2023-05-13T03:39:19.824Z,61.75
2023-05-13T03:41:47.737Z,61.94
2023-05-13T03:44:15.612Z,61.83
2023-05-13T03:46:43.648Z,61.63
2023-05-13T03:49:12.113Z,61.98
2023-05-13T03:51:40.019Z,61.61
2023-05-13T03:54:07.933Z,61.98
2023-05-13T03:56:37.223Z,61.79
2023-05-13T03:59:05.132Z,61.80
2023-05-13T04:01:33.038Z,61.92
2023-05-13T04:04:00.948Z,63.16
2023-05-13T04:06:28.829Z,62.11
2023-05-13T04:08:56.741Z,61.78
2023-05-13T04:11:24.642Z,62.05
2023-05-13T04:13:54.022Z,62.01
2023-05-13T04:16:22.646Z,61.70
2023-05-13T04:18:50.690Z,61.63
2023-05-13T04:21:18.589Z,61.70
2023-05-13T04:23:46.502Z,61.49
2023-05-13T04:26:14.420Z,61.45
2023-05-13T04:28:42.317Z,61.89
2023-05-13T04:31:12.266Z,61.75
2023-05-13T04:33:40.180Z,61.71
2023-05-13T04:36:08.312Z,61.94
2023-05-13T04:38:36.227Z,61.73
2023-05-13T04:41:04.172Z,61.86
2023-05-13T04:43:32.201Z,61.59
2023-05-13T04:46:00.132Z,61.92
2023-05-13T04:48:29.468Z,61.51
2023-05-13T04:50:58.435Z,61.62
2023-05-13T04:53:26.828Z,61.59
2023-05-13T04:56:00.614Z,61.57
2023-05-13T04:58:28.727Z,61.45
2023-05-13T05:00:57.442Z,61.48
2023-05-13T05:03:25.591Z,61.98
2023-05-13T05:05:54.930Z,61.04
2023-05-13T05:08:22.852Z,61.21
2023-05-13T05:10:50.821Z,61.35
2023-05-13T05:13:18.746Z,61.52
2023-05-13T05:15:46.645Z,62.49
2023-05-13T05:18:14.709Z,61.74
2023-05-13T05:20:42.701Z,61.29
2023-05-13T05:23:12.009Z,60.82
2023-05-13T05:25:39.926Z,62.33
2023-05-13T05:28:07.880Z,61.02
2023-05-13T05:30:39.745Z,61.61
2023-05-13T05:33:08.223Z,61.17
2023-05-13T05:35:37.341Z,60.92
2023-05-13T05:38:05.806Z,60.81
2023-05-13T05:40:42.127Z,61.19
2023-05-13T05:43:11.032Z,61.01
2023-05-13T05:45:39.531Z,60.70
2023-05-13T05:48:08.207Z,60.86
2023-05-13T05:50:36.595Z,60.59
2023-05-13T05:53:04.928Z,60.46
2023-05-13T05:55:34.270Z,62.86
2023-05-13T05:58:05.643Z,60.78
2023-05-13T06:00:34.198Z,60.84
2023-05-13T06:03:02.251Z,61.00
2023-05-13T06:05:30.319Z,61.63
2023-05-13T06:07:58.241Z,61.51
2023-05-13T06:10:26.253Z,60.83
2023-05-13T06:12:55.544Z,60.97
2023-05-13T06:15:23.553Z,60.52
2023-05-13T06:17:51.521Z,60.69
2023-05-13T06:20:19.810Z,60.27
2023-05-13T06:22:48.261Z,60.06
2023-05-13T06:25:16.321Z,60.39
2023-05-13T06:27:44.284Z,59.90
2023-05-13T06:30:14.168Z,59.60
2023-05-13T06:32:50.337Z,59.55
2023-05-13T06:35:25.600Z,58.85
2023-05-13T06:37:53.531Z,61.51
2023-05-13T06:40:21.747Z,58.44
2023-05-13T06:42:49.955Z,59.12
2023-05-13T06:45:23.295Z,58.64
2023-05-13T06:47:51.598Z,60.26
2023-05-13T06:50:19.894Z,59.94
2023-05-13T06:52:47.976Z,59.95
2023-05-13T06:55:18.970Z,60.45
2023-05-13T06:57:47.480Z,59.67
2023-05-13T07:00:16.215Z,58.73
2023-05-13T07:02:45.867Z,58.92
2023-05-13T07:05:14.113Z,59.21
2023-05-13T07:07:43.335Z,58.68
2023-05-13T07:10:12.055Z,58.69
2023-05-13T07:12:40.115Z,58.56
2023-05-13T07:15:09.424Z,58.77
2023-05-13T07:17:37.577Z,58.14
2023-05-13T07:20:08.765Z,57.71
2023-05-13T07:22:36.693Z,58.00
2023-05-13T07:25:04.929Z,58.13
2023-05-13T07:27:32.948Z,58.19
2023-05-13T07:30:01.074Z,57.17
2023-05-13T07:32:30.581Z,57.59
2023-05-13T07:34:58.528Z,57.48
2023-05-13T07:37:27.992Z,56.92
2023-05-13T07:39:56.293Z,57.12
2023-05-13T07:42:24.199Z,55.79
2023-05-13T07:44:52.758Z,55.19
2023-05-13T07:47:21.011Z,55.16
2023-05-13T07:49:49.267Z,55.27
2023-05-13T07:52:17.227Z,52.43
2023-05-13T07:54:46.483Z,54.01
2023-05-13T07:57:14.412Z,54.82
2023-05-13T07:59:44.532Z,53.18
2023-05-13T08:02:13.206Z,52.67
2023-05-13T08:04:48.803Z,53.20
2023-05-13T08:07:16.992Z,53.37
2023-05-13T08:09:46.336Z,53.07
2023-05-13T08:12:14.426Z,51.39
2023-05-13T08:14:42.319Z,52.02
2023-05-13T08:17:12.619Z,52.42
2023-05-13T08:19:42.113Z,52.45
2023-05-13T08:22:10.057Z,52.35
2023-05-13T08:24:38.157Z,51.79
2023-05-13T08:27:07.730Z,51.85
2023-05-13T08:29:35.780Z,51.50
2023-05-13T08:32:03.734Z,49.41
2023-05-13T08:34:31.699Z,49.94
2023-05-13T08:36:59.627Z,48.92
2023-05-13T08:39:27.548Z,50.07
2023-05-13T08:41:57.989Z,48.96
2023-05-13T08:44:34.289Z,48.96
2023-05-13T08:47:12.984Z,49.28
2023-05-13T08:49:41.002Z,48.54
2023-05-13T08:52:09.861Z,47.89
2023-05-13T08:54:38.236Z,47.42
2023-05-13T08:57:06.744Z,46.78
2023-05-13T08:59:36.069Z,45.96
2023-05-13T09:02:05.700Z,46.28
2023-05-13T09:04:34.400Z,45.86
2023-05-13T09:07:02.842Z,45.52
2023-05-13T09:09:30.860Z,45.29
2023-05-13T09:11:58.748Z,44.89
2023-05-13T09:14:31.382Z,44.41
2023-05-13T09:17:00.795Z,44.31
2023-05-13T09:19:28.808Z,44.69
2023-05-13T09:21:57.693Z,44.49
2023-05-13T09:24:25.656Z,43.33
2023-05-13T09:26:53.850Z,44.96
2023-05-13T09:29:23.884Z,43.56
2023-05-13T09:31:53.403Z,43.14
2023-05-13T09:34:30.797Z,42.71
2023-05-13T09:37:03.697Z,42.47
2023-05-13T09:39:33.830Z,41.98
2023-05-13T09:42:04.926Z,40.13
2023-05-13T09:44:33.832Z,41.23
2023-05-13T09:47:03.475Z,39.94
2023-05-13T09:49:33.132Z,40.36
2023-05-13T09:52:01.052Z,40.14
2023-05-13T09:54:37.606Z,36.96
2023-05-13T09:57:06.165Z,38.47
2023-05-13T09:59:34.540Z,39.86
2023-05-13T10:02:06.754Z,40.16
2023-05-13T10:04:36.305Z,39.06
2023-05-13T10:07:05.244Z,39.86
2023-05-13T10:09:38.714Z,39.15
2023-05-13T10:12:09.686Z,38.49
2023-05-13T10:14:38.320Z,38.50
2023-05-13T10:17:07.036Z,38.10
2023-05-13T10:19:36.721Z,38.27
2023-05-13T10:22:05.215Z,35.17
2023-05-13T10:24:33.176Z,35.38
2023-05-13T10:27:03.163Z,37.79
2023-05-13T10:29:31.333Z,38.60
2023-05-13T10:31:59.990Z,35.52
2023-05-13T10:34:28.745Z,38.15
2023-05-13T10:37:18.348Z,37.98
2023-05-13T10:40:11.242Z,34.71
2023-05-13T10:42:42.733Z,34.05
2023-05-13T10:45:10.949Z,37.50
2023-05-13T10:47:39.717Z,37.29
2023-05-13T10:50:08.938Z,38.01
2023-05-13T10:52:46.603Z,33.71
2023-05-13T10:55:19.865Z,36.70
2023-05-13T10:58:13.863Z,33.55
2023-05-13T11:00:43.412Z,36.86
2023-05-13T11:03:17.430Z,36.78
2023-05-13T11:05:48.397Z,37.25
2023-05-13T11:08:35.734Z,34.05
2023-05-13T11:11:04.101Z,36.39
2023-05-13T11:13:38.360Z,38.15
2023-05-13T11:16:08.506Z,35.57
2023-05-13T11:18:36.827Z,36.01
2023-05-13T11:21:05.987Z,36.50
2023-05-13T11:23:36.871Z,36.46
2023-05-13T11:26:12.648Z,35.53
2023-05-13T11:29:02.336Z,35.81
2023-05-13T11:31:44.119Z,33.41
2023-05-13T11:34:14.800Z,34.66
2023-05-13T11:36:45.846Z,35.96
2023-05-13T11:39:16.773Z,35.40
2023-05-13T11:41:46.363Z,34.06
2023-05-13T11:44:16.199Z,33.87
2023-05-13T11:46:55.040Z,33.65
2023-05-13T11:49:38.913Z,29.90
2023-05-13T11:52:08.900Z,32.58
2023-05-13T11:54:46.578Z,31.74
2023-05-13T11:57:22.379Z,33.20
2023-05-13T11:59:54.629Z,33.30
2023-05-13T12:02:23.846Z,33.32
2023-05-13T12:04:52.325Z,33.97
2023-05-13T12:07:24.500Z,33.04
2023-05-13T12:09:55.014Z,32.79
2023-05-13T12:12:23.102Z,30.39
2023-05-13T12:14:51.515Z,31.56
2023-05-13T12:17:20.107Z,29.18
2023-05-13T12:20:11.043Z,32.10
2023-05-13T12:22:49.851Z,32.44
2023-05-13T12:25:41.804Z,32.75
2023-05-13T12:28:16.907Z,33.07
2023-05-13T12:30:50.108Z,29.02
2023-05-13T12:33:19.217Z,34.21
2023-05-13T12:35:49.708Z,33.33
2023-05-13T12:38:18.804Z,32.43
2023-05-13T12:40:49.125Z,32.24
2023-05-13T12:43:18.877Z,26.90
2023-05-13T12:45:47.908Z,25.84
2023-05-13T12:48:15.995Z,29.45
2023-05-13T12:50:43.894Z,30.64
2023-05-13T12:53:11.817Z,29.64
2023-05-13T12:55:40.223Z,30.61
2023-05-13T12:58:12.032Z,30.22
2023-05-13T13:00:40.046Z,24.80
2023-05-13T13:03:08.499Z,30.32
2023-05-13T13:05:36.869Z,30.36
2023-05-13T13:08:06.248Z,31.29
2023-05-13T13:10:34.868Z,28.44
2023-05-13T13:13:03.024Z,28.60
2023-05-13T13:15:32.317Z,26.67
2023-05-13T13:18:00.456Z,25.26
2023-05-13T13:20:28.474Z,28.89
2023-05-13T13:22:56.363Z,28.23
2023-05-13T13:25:24.575Z,28.06
2023-05-13T13:27:52.665Z,28.12
2023-05-13T13:30:20.622Z,24.25
2023-05-13T13:32:49.966Z,28.71
2023-05-13T13:35:20.674Z,27.64
2023-05-13T13:37:48.811Z,28.08
2023-05-13T13:40:17.148Z,24.58
2023-05-13T13:42:45.339Z,29.92
2023-05-13T13:45:14.242Z,29.76
2023-05-13T13:47:42.214Z,27.69
2023-05-13T13:50:12.822Z,29.36
2023-05-13T13:52:40.817Z,26.83
2023-05-13T13:55:11.645Z,27.39
2023-05-13T13:57:39.711Z,27.67
2023-05-13T14:00:09.477Z,28.89
2023-05-13T14:02:40.776Z,27.58
2023-05-13T14:05:09.475Z,26.25
2023-05-13T14:07:38.862Z,27.63
2023-05-13T14:10:08.124Z,24.39
2023-05-13T14:12:36.809Z,28.35
2023-05-13T14:15:05.499Z,27.11
2023-05-13T14:17:33.714Z,28.44
2023-05-13T14:20:01.812Z,21.51
2023-05-13T14:22:29.749Z,26.78
2023-05-13T14:25:01.350Z,28.32
2023-05-13T14:27:29.857Z,23.38
2023-05-13T14:29:57.793Z,26.33
2023-05-13T14:32:26.085Z,25.90
2023-05-13T14:34:54.385Z,25.98
2023-05-13T14:37:22.297Z,24.54
2023-05-13T14:39:50.443Z,27.20
2023-05-13T14:42:21.202Z,24.14
2023-05-13T14:44:49.088Z,24.71
2023-05-13T14:47:16.995Z,25.49
2023-05-13T14:49:44.905Z,23.58
2023-05-13T14:52:13.184Z,23.90
2023-05-13T14:54:41.364Z,25.02
2023-05-13T14:57:09.323Z,25.22
2023-05-13T14:59:38.657Z,23.30
2023-05-13T15:02:06.887Z,25.24
2023-05-13T15:04:34.801Z,24.97
2023-05-13T15:07:03.971Z,23.96
2023-05-13T15:09:31.973Z,23.32
2023-05-13T15:11:59.955Z,24.29
2023-05-13T15:14:28.374Z,21.07
2023-05-13T15:16:58.146Z,22.23
2023-05-13T15:19:26.124Z,23.51
2023-05-13T15:21:54.221Z,21.10
2023-05-13T15:24:22.157Z,21.54
2023-05-13T15:26:50.553Z,22.82
2023-05-13T15:29:18.571Z,21.52
2023-05-13T15:31:46.571Z,20.27
2023-05-13T15:34:15.865Z,22.54
2023-05-13T15:36:43.767Z,20.48
2023-05-13T15:39:12.041Z,23.02
2023-05-13T15:41:39.963Z,23.04
2023-05-13T15:44:07.844Z,23.78
2023-05-13T15:46:35.994Z,22.59
2023-05-13T15:49:04.108Z,20.87
2023-05-13T15:51:33.713Z,21.47
2023-05-13T15:54:01.659Z,21.09
2023-05-13T15:56:29.559Z,24.21
2023-05-13T15:58:57.518Z,23.32
2023-05-13T16:01:25.477Z,23.78
2023-05-13T16:03:53.421Z,23.12
2023-05-13T16:06:21.400Z,21.16
2023-05-13T16:08:50.673Z,22.25
2023-05-13T16:11:18.631Z,23.22
2023-05-13T16:13:46.521Z,23.94
2023-05-13T16:16:14.486Z,23.20
2023-05-13T16:18:43.217Z,23.70
2023-05-13T16:21:11.191Z,20.02
2023-05-13T16:23:39.258Z,24.82
2023-05-13T16:26:08.535Z,23.54
2023-05-13T16:28:36.536Z,23.38
2023-05-13T16:31:04.529Z,22.76
2023-05-13T16:33:33.821Z,23.28
2023-05-13T16:36:01.746Z,24.90
2023-05-13T16:38:35.175Z,23.51
2023-05-13T16:41:03.611Z,22.40
2023-05-13T16:43:33.090Z,23.88
2023-05-13T16:46:01.062Z,22.73
2023-05-13T16:48:29.145Z,22.54
2023-05-13T16:50:57.125Z,23.09
2023-05-13T16:53:26.314Z,23.14
2023-05-13T16:55:54.281Z,23.06
2023-05-13T16:58:22.218Z,23.44
2023-05-13T17:00:52.422Z,24.52
2023-05-13T17:03:20.472Z,22.53
2023-05-13T17:05:48.530Z,25.10
2023-05-13T17:08:18.874Z,22.59
2023-05-13T17:10:46.780Z,24.24
2023-05-13T17:13:14.734Z,22.48
2023-05-13T17:15:42.615Z,20.92
2023-05-13T17:18:11.907Z,23.10
2023-05-13T17:20:39.796Z,23.77
2023-05-13T17:23:07.737Z,20.90
2023-05-13T17:25:35.654Z,24.99
2023-05-13T17:28:03.534Z,25.79
2023-05-13T17:30:31.483Z,27.06
2023-05-13T17:32:59.430Z,25.10
2023-05-13T17:35:28.774Z,26.70
2023-05-13T17:37:56.747Z,25.57
2023-05-13T17:40:24.880Z,27.26
2023-05-13T17:42:53.005Z,29.22
2023-05-13T17:45:21.376Z,30.61
2023-05-13T17:47:49.353Z,25.66
2023-05-13T17:50:18.349Z,27.16
2023-05-13T17:52:47.729Z,26.95
2023-05-13T17:55:15.719Z,32.30
2023-05-13T17:57:43.718Z,30.55
2023-05-13T18:00:12.967Z,32.06
2023-05-13T18:02:41.255Z,31.66
2023-05-13T18:05:10.263Z,30.73
2023-05-13T18:07:38.160Z,32.52
2023-05-13T18:10:09.170Z,32.86
2023-05-13T18:12:37.190Z,33.18
2023-05-13T18:15:05.892Z,33.34
2023-05-13T18:17:33.847Z,33.54
2023-05-13T18:20:01.856Z,33.62
2023-05-13T18:22:29.739Z,33.26
2023-05-13T18:24:57.652Z,34.50
2023-05-13T18:27:27.094Z,34.06
2023-05-13T18:29:54.994Z,34.15
2023-05-13T18:32:22.944Z,33.71
2023-05-13T18:34:50.909Z,35.07
2023-05-13T18:37:18.837Z,35.15
2023-05-13T18:39:46.842Z,34.72
2023-05-13T18:42:14.727Z,35.32
2023-05-13T18:44:44.445Z,34.95
2023-05-13T18:47:12.376Z,35.62
2023-05-13T18:49:40.498Z,35.37
2023-05-13T18:52:08.692Z,35.52
2023-05-13T18:54:36.683Z,35.26
2023-05-13T18:57:04.914Z,36.18
2023-05-13T18:59:32.855Z,36.48
2023-05-13T19:02:02.278Z,36.61
2023-05-13T19:04:30.414Z,36.34
2023-05-13T19:06:58.455Z,36.26
2023-05-13T19:09:26.363Z,36.14
2023-05-13T19:11:54.236Z,37.63
2023-05-13T19:14:22.175Z,37.49
2023-05-13T19:16:50.216Z,37.21
2023-05-13T19:19:22.569Z,37.89
2023-05-13T19:21:50.469Z,38.12
2023-05-13T19:24:18.417Z,38.24
2023-05-13T19:26:46.361Z,38.45
2023-05-13T19:29:14.332Z,38.82
2023-05-13T19:31:42.253Z,38.85
2023-05-13T19:34:10.208Z,39.34
2023-05-13T19:36:39.516Z,39.29
2023-05-13T19:39:07.535Z,39.47
2023-05-13T19:41:35.543Z,39.02
2023-05-13T19:44:03.471Z,39.68
2023-05-13T19:46:31.450Z,39.48
2023-05-13T19:48:59.416Z,40.28
2023-05-13T19:51:27.562Z,40.55
2023-05-13T19:53:57.081Z,40.78
2023-05-13T19:56:25.080Z,41.22
2023-05-13T19:58:52.992Z,40.77
2023-05-13T20:01:41.300Z,41.23
2023-05-13T20:04:09.872Z,40.96
2023-05-13T20:06:37.904Z,41.08
2023-05-13T20:09:07.410Z,41.11
2023-05-13T20:11:35.290Z,41.31
2023-05-13T20:14:03.200Z,41.19
2023-05-13T20:16:31.137Z,41.10
2023-05-13T20:18:59.095Z,42.31
2023-05-13T20:21:27.105Z,42.94
2023-05-13T20:24:10.207Z,42.71
2023-05-13T20:26:39.605Z,42.34
2023-05-13T20:29:08.188Z,41.89
2023-05-13T20:31:36.158Z,42.61
2023-05-13T20:34:04.385Z,43.90
2023-05-13T20:36:32.678Z,44.19
2023-05-13T20:39:00.611Z,43.98
2023-05-13T20:41:28.908Z,43.71
2023-05-13T20:43:58.202Z,44.21
2023-05-13T20:46:26.247Z,43.97
2023-05-13T20:48:54.174Z,44.54
2023-05-13T20:51:22.231Z,44.51
2023-05-13T20:53:50.421Z,44.82
2023-05-13T20:56:18.330Z,44.82
2023-05-13T20:58:46.316Z,44.74
2023-05-13T21:01:15.811Z,44.73
2023-05-13T21:03:43.771Z,44.67
2023-05-13T21:06:11.837Z,44.76
2023-05-13T21:08:40.260Z,44.82
2023-05-13T21:11:08.292Z,44.74
2023-05-13T21:13:36.207Z,44.92
2023-05-13T21:16:05.386Z,45.18
2023-05-13T21:18:34.759Z,45.82
2023-05-13T21:21:08.473Z,46.21
2023-05-13T21:23:37.052Z,46.08
2023-05-13T21:26:06.251Z,46.40
2023-05-13T21:28:34.263Z,46.75
2023-05-13T21:31:02.266Z,47.03
2023-05-13T21:33:30.453Z,46.97
2023-05-13T21:35:59.714Z,46.68
2023-05-13T21:38:28.543Z,46.85
2023-05-13T21:40:56.477Z,47.36
2023-05-13T21:43:24.380Z,47.01
2023-05-13T21:45:52.293Z,47.07
2023-05-13T21:48:20.316Z,46.73
2023-05-13T21:50:48.298Z,46.97
2023-05-13T21:53:17.695Z,47.42
2023-05-13T21:55:45.937Z,47.64
2023-05-13T21:58:13.872Z,47.41
2023-05-13T22:00:41.879Z,47.43
2023-05-13T22:03:09.869Z,47.86
2023-05-13T22:05:43.641Z,47.96
2023-05-13T22:08:11.938Z,48.26
2023-05-13T22:10:41.361Z,48.00
2023-05-13T22:13:09.250Z,48.05
2023-05-13T22:15:37.133Z,48.06
2023-05-13T22:18:05.436Z,47.93
2023-05-13T22:20:33.377Z,47.96
2023-05-13T22:23:01.300Z,47.76
2023-05-13T22:25:29.228Z,47.56
2023-05-13T22:27:58.651Z,47.92
2023-05-13T22:30:26.555Z,48.31
2023-05-13T22:32:55.849Z,48.35
2023-05-13T22:35:23.993Z,48.29
2023-05-13T22:37:52.718Z,48.25
2023-05-13T22:40:20.928Z,48.27
2023-05-13T22:42:48.960Z,48.55
2023-05-13T22:45:18.508Z,48.62
2023-05-13T22:47:46.433Z,48.78
2023-05-13T22:50:14.362Z,48.76
2023-05-13T22:52:42.251Z,48.64
2023-05-13T22:55:10.866Z,48.75
2023-05-13T22:57:38.821Z,48.82
2023-05-13T23:00:08.401Z,48.86
2023-05-13T23:02:37.700Z,48.95
2023-05-13T23:05:06.191Z,49.12
2023-05-13T23:07:34.185Z,49.21
2023-05-13T23:10:02.204Z,49.59
2023-05-13T23:12:30.123Z,49.98
2023-05-13T23:14:58.085Z,50.09
2023-05-13T23:17:26.090Z,50.15
2023-05-13T23:19:55.542Z,50.90
2023-05-13T23:22:23.482Z,50.58
2023-05-13T23:24:51.491Z,50.35
2023-05-13T23:27:19.433Z,50.45
2023-05-13T23:29:47.325Z,50.14
2023-05-13T23:32:15.252Z,50.29
2023-05-13T23:34:43.136Z,50.35
2023-05-13T23:37:12.526Z,50.62
2023-05-13T23:39:40.435Z,50.62
2023-05-13T23:42:08.483Z,50.77
2023-05-13T23:44:36.408Z,51.43
2023-05-13T23:47:04.579Z,51.79
2023-05-13T23:49:32.546Z,52.41
2023-05-13T23:52:00.437Z,52.31
2023-05-13T23:54:29.825Z,52.15
2023-05-13T23:56:57.708Z,51.81
2023-05-13T23:59:25.583Z,51.83
